sensor_id;sensor_type;location;lat;lon;timestamp;P1;durP1;ratioP1;P2;durP2;ratioP2
65202;SDS011;51788;45.124;38.966;2023-03-12T00:02:12;5.22;;;2.80;;
65202;SDS011;51788;45.124;38.966;2023-03-12T00:04:38;3.88;;;2.58;;
65202;SDS011;51788;45.124;38.966;2023-03-12T00:07:04;5.93;;;2.50;;
65202;SDS011;51788;45.124;38.966;2023-03-12T00:09:37;6.22;;;2.80;;
65202;SDS011;51788;45.124;38.966;2023-03-12T00:12:04;6.75;;;2.92;;
65202;SDS011;51788;45.124;38.966;2023-03-12T00:14:30;4.30;;;2.67;;
65202;SDS011;51788;45.124;38.966;2023-03-12T00:16:57;4.32;;;2.22;;
65202;SDS011;51788;45.124;38.966;2023-03-12T00:19:24;3.97;;;2.35;;
65202;SDS011;51788;45.124;38.966;2023-03-12T00:21:50;4.25;;;2.33;;
65202;SDS011;51788;45.124;38.966;2023-03-12T00:24:16;5.50;;;2.92;;
65202;SDS011;51788;45.124;38.966;2023-03-12T00:26:42;4.57;;;2.70;;
65202;SDS011;51788;45.124;38.966;2023-03-12T00:29:08;3.85;;;2.92;;
65202;SDS011;51788;45.124;38.966;2023-03-12T00:31:34;4.80;;;2.55;;
65202;SDS011;51788;45.124;38.966;2023-03-12T00:34:00;3.60;;;2.90;;
65202;SDS011;51788;45.124;38.966;2023-03-12T00:36:28;3.38;;;2.70;;
65202;SDS011;51788;45.124;38.966;2023-03-12T00:38:56;4.18;;;3.00;;
65202;SDS011;51788;45.124;38.966;2023-03-12T00:41:23;2.92;;;2.22;;
65202;SDS011;51788;45.124;38.966;2023-03-12T00:43:51;5.28;;;2.53;;
65202;SDS011;51788;45.124;38.966;2023-03-12T00:46:17;4.45;;;2.67;;
65202;SDS011;51788;45.124;38.966;2023-03-12T00:48:44;3.22;;;2.65;;
65202;SDS011;51788;45.124;38.966;2023-03-12T00:51:10;3.35;;;2.67;;
65202;SDS011;51788;45.124;38.966;2023-03-12T00:53:36;5.35;;;2.63;;
65202;SDS011;51788;45.124;38.966;2023-03-12T00:56:03;4.00;;;2.85;;
65202;SDS011;51788;45.124;38.966;2023-03-12T00:58:30;4.47;;;2.67;;
65202;SDS011;51788;45.124;38.966;2023-03-12T01:00:56;3.67;;;2.88;;
65202;SDS011;51788;45.124;38.966;2023-03-12T01:03:21;5.97;;;2.85;;
65202;SDS011;51788;45.124;38.966;2023-03-12T01:05:47;6.35;;;3.00;;
65202;SDS011;51788;45.124;38.966;2023-03-12T01:08:18;5.72;;;2.92;;
65202;SDS011;51788;45.124;38.966;2023-03-12T01:10:44;5.38;;;3.70;;
65202;SDS011;51788;45.124;38.966;2023-03-12T01:13:10;8.88;;;3.40;;
65202;SDS011;51788;45.124;38.966;2023-03-12T01:15:36;5.43;;;3.38;;
65202;SDS011;51788;45.124;38.966;2023-03-12T01:18:02;6.85;;;4.43;;
65202;SDS011;51788;45.124;38.966;2023-03-12T01:20:29;8.30;;;3.30;;
65202;SDS011;51788;45.124;38.966;2023-03-12T01:22:55;10.10;;;3.40;;
65202;SDS011;51788;45.124;38.966;2023-03-12T01:25:21;8.20;;;3.50;;
65202;SDS011;51788;45.124;38.966;2023-03-12T01:27:46;9.50;;;3.95;;
65202;SDS011;51788;45.124;38.966;2023-03-12T01:30:12;4.50;;;3.28;;
65202;SDS011;51788;45.124;38.966;2023-03-12T01:32:39;7.57;;;4.65;;
65202;SDS011;51788;45.124;38.966;2023-03-12T01:35:05;7.72;;;3.80;;
65202;SDS011;51788;45.124;38.966;2023-03-12T01:37:31;10.35;;;4.07;;
65202;SDS011;51788;45.124;38.966;2023-03-12T01:39:58;6.85;;;3.70;;
65202;SDS011;51788;45.124;38.966;2023-03-12T01:42:24;11.40;;;4.28;;
65202;SDS011;51788;45.124;38.966;2023-03-12T01:44:54;15.15;;;4.07;;
65202;SDS011;51788;45.124;38.966;2023-03-12T01:47:29;6.60;;;3.55;;
65202;SDS011;51788;45.124;38.966;2023-03-12T01:50:01;4.28;;;2.88;;
65202;SDS011;51788;45.124;38.966;2023-03-12T01:52:29;8.55;;;4.50;;
65202;SDS011;51788;45.124;38.966;2023-03-12T01:55:12;8.27;;;4.43;;
65202;SDS011;51788;45.124;38.966;2023-03-12T01:57:53;7.90;;;4.50;;
65202;SDS011;51788;45.124;38.966;2023-03-12T02:00:23;10.93;;;4.32;;
65202;SDS011;51788;45.124;38.966;2023-03-12T02:02:52;8.98;;;3.47;;
65202;SDS011;51788;45.124;38.966;2023-03-12T02:08:13;5.90;;;3.42;;
65202;SDS011;51788;45.124;38.966;2023-03-12T02:10:41;5.57;;;3.83;;
65202;SDS011;51788;45.124;38.966;2023-03-12T02:13:07;7.57;;;3.85;;
65202;SDS011;51788;45.124;38.966;2023-03-12T02:15:34;6.63;;;4.65;;
65202;SDS011;51788;45.124;38.966;2023-03-12T02:18:01;10.25;;;4.53;;
65202;SDS011;51788;45.124;38.966;2023-03-12T02:20:48;17.90;;;5.03;;
65202;SDS011;51788;45.124;38.966;2023-03-12T02:25:57;14.00;;;5.07;;
65202;SDS011;51788;45.124;38.966;2023-03-12T02:28:26;17.85;;;5.60;;
65202;SDS011;51788;45.124;38.966;2023-03-12T02:30:56;17.17;;;4.82;;
65202;SDS011;51788;45.124;38.966;2023-03-12T02:33:25;7.35;;;4.20;;
65202;SDS011;51788;45.124;38.966;2023-03-12T02:35:51;9.40;;;4.35;;
65202;SDS011;51788;45.124;38.966;2023-03-12T02:38:37;13.65;;;5.43;;
65202;SDS011;51788;45.124;38.966;2023-03-12T02:41:07;10.27;;;5.00;;
65202;SDS011;51788;45.124;38.966;2023-03-12T02:43:41;17.65;;;5.90;;
65202;SDS011;51788;45.124;38.966;2023-03-12T02:46:13;11.60;;;4.30;;
65202;SDS011;51788;45.124;38.966;2023-03-12T02:48:40;12.27;;;4.63;;
65202;SDS011;51788;45.124;38.966;2023-03-12T02:51:06;14.88;;;4.28;;
65202;SDS011;51788;45.124;38.966;2023-03-12T02:53:32;12.00;;;4.50;;
65202;SDS011;51788;45.124;38.966;2023-03-12T02:56:00;12.05;;;4.38;;
65202;SDS011;51788;45.124;38.966;2023-03-12T02:58:26;12.57;;;4.70;;
65202;SDS011;51788;45.124;38.966;2023-03-12T03:00:52;14.23;;;4.60;;
65202;SDS011;51788;45.124;38.966;2023-03-12T03:03:18;10.38;;;4.93;;
65202;SDS011;51788;45.124;38.966;2023-03-12T03:05:44;12.55;;;4.30;;
65202;SDS011;51788;45.124;38.966;2023-03-12T03:08:10;10.75;;;4.75;;
65202;SDS011;51788;45.124;38.966;2023-03-12T03:10:36;14.73;;;4.55;;
65202;SDS011;51788;45.124;38.966;2023-03-12T03:13:02;13.50;;;5.22;;
65202;SDS011;51788;45.124;38.966;2023-03-12T03:15:28;11.35;;;4.50;;
65202;SDS011;51788;45.124;38.966;2023-03-12T03:17:54;12.52;;;5.18;;
65202;SDS011;51788;45.124;38.966;2023-03-12T03:20:20;13.98;;;5.22;;
65202;SDS011;51788;45.124;38.966;2023-03-12T03:22:46;8.52;;;4.40;;
65202;SDS011;51788;45.124;38.966;2023-03-12T03:25:12;14.10;;;4.50;;
65202;SDS011;51788;45.124;38.966;2023-03-12T03:27:38;10.20;;;5.00;;
65202;SDS011;51788;45.124;38.966;2023-03-12T03:30:05;13.07;;;5.22;;
65202;SDS011;51788;45.124;38.966;2023-03-12T03:32:36;15.45;;;4.80;;
65202;SDS011;51788;45.124;38.966;2023-03-12T03:35:03;9.77;;;4.80;;
65202;SDS011;51788;45.124;38.966;2023-03-12T03:37:29;19.83;;;5.28;;
65202;SDS011;51788;45.124;38.966;2023-03-12T03:39:55;9.00;;;4.70;;
65202;SDS011;51788;45.124;38.966;2023-03-12T03:42:22;12.25;;;4.20;;
65202;SDS011;51788;45.124;38.966;2023-03-12T03:44:48;15.18;;;4.97;;
65202;SDS011;51788;45.124;38.966;2023-03-12T03:47:14;8.55;;;4.57;;
65202;SDS011;51788;45.124;38.966;2023-03-12T03:49:40;13.43;;;4.43;;
65202;SDS011;51788;45.124;38.966;2023-03-12T03:52:06;7.88;;;4.68;;
65202;SDS011;51788;45.124;38.966;2023-03-12T03:54:34;11.80;;;4.22;;
65202;SDS011;51788;45.124;38.966;2023-03-12T03:57:01;16.20;;;5.22;;
65202;SDS011;51788;45.124;38.966;2023-03-12T03:59:28;16.77;;;4.72;;
65202;SDS011;51788;45.124;38.966;2023-03-12T04:01:54;9.88;;;4.25;;
65202;SDS011;51788;45.124;38.966;2023-03-12T04:04:20;19.55;;;6.00;;
65202;SDS011;51788;45.124;38.966;2023-03-12T04:06:46;15.77;;;5.30;;
65202;SDS011;51788;45.124;38.966;2023-03-12T04:09:13;16.65;;;4.70;;
65202;SDS011;51788;45.124;38.966;2023-03-12T04:11:39;13.50;;;4.43;;
65202;SDS011;51788;45.124;38.966;2023-03-12T04:14:06;12.85;;;5.07;;
65202;SDS011;51788;45.124;38.966;2023-03-12T04:16:35;9.63;;;4.97;;
65202;SDS011;51788;45.124;38.966;2023-03-12T04:19:01;12.82;;;4.35;;
65202;SDS011;51788;45.124;38.966;2023-03-12T04:21:27;7.82;;;3.88;;
65202;SDS011;51788;45.124;38.966;2023-03-12T04:23:53;7.63;;;3.90;;
65202;SDS011;51788;45.124;38.966;2023-03-12T04:26:23;12.90;;;4.70;;
65202;SDS011;51788;45.124;38.966;2023-03-12T04:28:50;9.70;;;4.65;;
65202;SDS011;51788;45.124;38.966;2023-03-12T04:31:16;7.97;;;4.55;;
65202;SDS011;51788;45.124;38.966;2023-03-12T04:33:48;14.68;;;5.03;;
65202;SDS011;51788;45.124;38.966;2023-03-12T04:36:15;6.93;;;4.05;;
65202;SDS011;51788;45.124;38.966;2023-03-12T04:38:43;11.50;;;4.15;;
65202;SDS011;51788;45.124;38.966;2023-03-12T04:41:13;9.55;;;5.13;;
65202;SDS011;51788;45.124;38.966;2023-03-12T04:43:47;13.23;;;4.57;;
65202;SDS011;51788;45.124;38.966;2023-03-12T04:46:14;9.98;;;4.65;;
65202;SDS011;51788;45.124;38.966;2023-03-12T04:48:42;14.90;;;5.78;;
65202;SDS011;51788;45.124;38.966;2023-03-12T04:51:08;11.30;;;4.15;;
65202;SDS011;51788;45.124;38.966;2023-03-12T04:53:34;13.93;;;4.95;;
65202;SDS011;51788;45.124;38.966;2023-03-12T04:56:01;10.55;;;4.82;;
65202;SDS011;51788;45.124;38.966;2023-03-12T04:58:29;12.90;;;4.32;;
65202;SDS011;51788;45.124;38.966;2023-03-12T05:00:55;8.15;;;4.72;;
65202;SDS011;51788;45.124;38.966;2023-03-12T05:03:21;17.08;;;5.15;;
65202;SDS011;51788;45.124;38.966;2023-03-12T05:05:47;13.63;;;5.55;;
65202;SDS011;51788;45.124;38.966;2023-03-12T05:08:14;7.82;;;4.35;;
65202;SDS011;51788;45.124;38.966;2023-03-12T05:10:40;8.45;;;4.35;;
65202;SDS011;51788;45.124;38.966;2023-03-12T05:13:12;14.27;;;5.38;;
65202;SDS011;51788;45.124;38.966;2023-03-12T05:15:43;7.07;;;3.78;;
65202;SDS011;51788;45.124;38.966;2023-03-12T05:18:10;16.27;;;5.38;;
65202;SDS011;51788;45.124;38.966;2023-03-12T05:20:36;9.73;;;4.90;;
65202;SDS011;51788;45.124;38.966;2023-03-12T05:23:02;10.98;;;4.90;;
65202;SDS011;51788;45.124;38.966;2023-03-12T05:25:28;8.35;;;4.25;;
65202;SDS011;51788;45.124;38.966;2023-03-12T05:27:54;9.23;;;3.65;;
65202;SDS011;51788;45.124;38.966;2023-03-12T05:30:21;13.30;;;5.00;;
65202;SDS011;51788;45.124;38.966;2023-03-12T05:32:47;6.80;;;4.30;;
65202;SDS011;51788;45.124;38.966;2023-03-12T05:35:13;7.47;;;4.38;;
65202;SDS011;51788;45.124;38.966;2023-03-12T05:37:42;9.95;;;4.90;;
65202;SDS011;51788;45.124;38.966;2023-03-12T05:40:10;22.95;;;4.95;;
65202;SDS011;51788;45.124;38.966;2023-03-12T05:42:37;11.27;;;4.30;;
65202;SDS011;51788;45.124;38.966;2023-03-12T05:45:03;10.63;;;4.45;;
65202;SDS011;51788;45.124;38.966;2023-03-12T05:47:31;12.48;;;4.50;;
65202;SDS011;51788;45.124;38.966;2023-03-12T05:49:56;7.72;;;4.07;;
65202;SDS011;51788;45.124;38.966;2023-03-12T05:52:22;12.70;;;4.53;;
65202;SDS011;51788;45.124;38.966;2023-03-12T05:54:50;18.33;;;4.65;;
65202;SDS011;51788;45.124;38.966;2023-03-12T05:57:17;5.47;;;4.25;;
65202;SDS011;51788;45.124;38.966;2023-03-12T05:59:43;8.43;;;4.75;;
65202;SDS011;51788;45.124;38.966;2023-03-12T06:02:12;11.52;;;4.13;;
65202;SDS011;51788;45.124;38.966;2023-03-12T06:04:38;9.18;;;4.38;;
65202;SDS011;51788;45.124;38.966;2023-03-12T06:07:05;14.43;;;4.72;;
65202;SDS011;51788;45.124;38.966;2023-03-12T06:09:32;9.63;;;3.70;;
65202;SDS011;51788;45.124;38.966;2023-03-12T06:11:59;9.48;;;4.25;;
65202;SDS011;51788;45.124;38.966;2023-03-12T06:14:25;7.65;;;3.65;;
65202;SDS011;51788;45.124;38.966;2023-03-12T06:16:54;9.25;;;4.32;;
65202;SDS011;51788;45.124;38.966;2023-03-12T06:19:21;7.03;;;3.72;;
65202;SDS011;51788;45.124;38.966;2023-03-12T06:21:48;17.13;;;3.80;;
65202;SDS011;51788;45.124;38.966;2023-03-12T06:24:14;8.13;;;4.03;;
65202;SDS011;51788;45.124;38.966;2023-03-12T06:26:44;11.35;;;4.03;;
65202;SDS011;51788;45.124;38.966;2023-03-12T06:29:17;22.50;;;3.40;;
65202;SDS011;51788;45.124;38.966;2023-03-12T06:31:43;9.00;;;2.80;;
65202;SDS011;51788;45.124;38.966;2023-03-12T06:34:09;5.07;;;3.03;;
65202;SDS011;51788;45.124;38.966;2023-03-12T06:36:35;6.63;;;3.03;;
65202;SDS011;51788;45.124;38.966;2023-03-12T06:39:01;4.60;;;3.63;;
65202;SDS011;51788;45.124;38.966;2023-03-12T06:41:30;12.02;;;3.70;;
65202;SDS011;51788;45.124;38.966;2023-03-12T06:43:56;4.78;;;2.58;;
65202;SDS011;51788;45.124;38.966;2023-03-12T06:46:23;7.25;;;3.05;;
65202;SDS011;51788;45.124;38.966;2023-03-12T06:48:50;8.07;;;3.40;;
65202;SDS011;51788;45.124;38.966;2023-03-12T06:51:16;5.53;;;3.03;;
65202;SDS011;51788;45.124;38.966;2023-03-12T06:53:43;5.53;;;2.53;;
65202;SDS011;51788;45.124;38.966;2023-03-12T06:56:09;4.55;;;2.35;;
65202;SDS011;51788;45.124;38.966;2023-03-12T06:58:36;7.32;;;2.90;;
65202;SDS011;51788;45.124;38.966;2023-03-12T07:01:03;6.53;;;2.80;;
65202;SDS011;51788;45.124;38.966;2023-03-12T07:03:29;9.98;;;3.05;;
65202;SDS011;51788;45.124;38.966;2023-03-12T07:05:55;13.90;;;2.78;;
65202;SDS011;51788;45.124;38.966;2023-03-12T07:08:22;3.55;;;2.97;;
65202;SDS011;51788;45.124;38.966;2023-03-12T07:10:48;9.05;;;3.22;;
65202;SDS011;51788;45.124;38.966;2023-03-12T07:13:14;4.10;;;2.60;;
65202;SDS011;51788;45.124;38.966;2023-03-12T07:15:40;7.68;;;2.53;;
65202;SDS011;51788;45.124;38.966;2023-03-12T07:18:07;7.10;;;2.85;;
65202;SDS011;51788;45.124;38.966;2023-03-12T07:20:36;10.25;;;3.33;;
65202;SDS011;51788;45.124;38.966;2023-03-12T07:23:03;5.78;;;2.40;;
65202;SDS011;51788;45.124;38.966;2023-03-12T07:25:30;13.85;;;2.67;;
65202;SDS011;51788;45.124;38.966;2023-03-12T07:27:56;7.22;;;3.42;;
65202;SDS011;51788;45.124;38.966;2023-03-12T07:30:22;10.63;;;3.20;;
65202;SDS011;51788;45.124;38.966;2023-03-12T07:32:48;5.78;;;3.10;;
65202;SDS011;51788;45.124;38.966;2023-03-12T07:35:13;6.68;;;3.55;;
65202;SDS011;51788;45.124;38.966;2023-03-12T07:37:39;6.43;;;3.15;;
65202;SDS011;51788;45.124;38.966;2023-03-12T07:40:05;10.00;;;2.72;;
65202;SDS011;51788;45.124;38.966;2023-03-12T07:42:32;4.72;;;2.45;;
65202;SDS011;51788;45.124;38.966;2023-03-12T07:44:59;8.00;;;3.40;;
65202;SDS011;51788;45.124;38.966;2023-03-12T07:47:25;6.75;;;3.13;;
65202;SDS011;51788;45.124;38.966;2023-03-12T07:49:51;9.52;;;3.30;;
65202;SDS011;51788;45.124;38.966;2023-03-12T07:52:18;8.77;;;4.25;;
65202;SDS011;51788;45.124;38.966;2023-03-12T07:54:44;9.48;;;3.25;;
65202;SDS011;51788;45.124;38.966;2023-03-12T07:57:10;8.40;;;2.80;;
65202;SDS011;51788;45.124;38.966;2023-03-12T07:59:36;5.40;;;2.95;;
65202;SDS011;51788;45.124;38.966;2023-03-12T08:02:02;5.25;;;2.75;;
65202;SDS011;51788;45.124;38.966;2023-03-12T08:04:28;4.93;;;3.03;;
65202;SDS011;51788;45.124;38.966;2023-03-12T08:06:55;8.73;;;2.90;;
65202;SDS011;51788;45.124;38.966;2023-03-12T08:09:21;6.00;;;2.67;;
65202;SDS011;51788;45.124;38.966;2023-03-12T08:11:47;5.43;;;2.92;;
65202;SDS011;51788;45.124;38.966;2023-03-12T08:14:13;11.30;;;2.80;;
65202;SDS011;51788;45.124;38.966;2023-03-12T08:16:39;4.35;;;2.55;;
65202;SDS011;51788;45.124;38.966;2023-03-12T08:19:05;5.10;;;3.00;;
65202;SDS011;51788;45.124;38.966;2023-03-12T08:21:31;4.82;;;2.85;;
65202;SDS011;51788;45.124;38.966;2023-03-12T08:23:56;8.10;;;2.70;;
65202;SDS011;51788;45.124;38.966;2023-03-12T08:26:22;6.43;;;2.70;;
65202;SDS011;51788;45.124;38.966;2023-03-12T08:28:48;6.63;;;3.35;;
65202;SDS011;51788;45.124;38.966;2023-03-12T08:31:14;4.53;;;3.22;;
65202;SDS011;51788;45.124;38.966;2023-03-12T08:33:40;6.05;;;3.22;;
65202;SDS011;51788;45.124;38.966;2023-03-12T08:36:08;12.98;;;3.15;;
65202;SDS011;51788;45.124;38.966;2023-03-12T08:38:34;7.82;;;3.55;;
65202;SDS011;51788;45.124;38.966;2023-03-12T08:41:00;20.85;;;3.33;;
65202;SDS011;51788;45.124;38.966;2023-03-12T08:43:27;5.75;;;2.80;;
65202;SDS011;51788;45.124;38.966;2023-03-12T08:45:57;4.18;;;3.17;;
65202;SDS011;51788;45.124;38.966;2023-03-12T08:48:24;5.68;;;3.38;;
65202;SDS011;51788;45.124;38.966;2023-03-12T08:50:53;3.78;;;3.35;;
65202;SDS011;51788;45.124;38.966;2023-03-12T08:53:20;8.55;;;3.17;;
65202;SDS011;51788;45.124;38.966;2023-03-12T08:55:46;11.15;;;3.40;;
65202;SDS011;51788;45.124;38.966;2023-03-12T08:58:12;7.25;;;3.10;;
65202;SDS011;51788;45.124;38.966;2023-03-12T09:00:38;6.50;;;3.20;;
65202;SDS011;51788;45.124;38.966;2023-03-12T09:03:04;9.57;;;3.88;;
65202;SDS011;51788;45.124;38.966;2023-03-12T09:05:31;8.52;;;3.45;;
65202;SDS011;51788;45.124;38.966;2023-03-12T09:07:57;6.10;;;3.38;;
65202;SDS011;51788;45.124;38.966;2023-03-12T09:10:23;5.70;;;2.92;;
65202;SDS011;51788;45.124;38.966;2023-03-12T09:12:51;8.93;;;3.10;;
65202;SDS011;51788;45.124;38.966;2023-03-12T09:15:17;5.75;;;3.28;;
65202;SDS011;51788;45.124;38.966;2023-03-12T09:17:43;6.90;;;2.88;;
65202;SDS011;51788;45.124;38.966;2023-03-12T09:20:09;10.38;;;3.08;;
65202;SDS011;51788;45.124;38.966;2023-03-12T09:22:39;5.65;;;2.97;;
65202;SDS011;51788;45.124;38.966;2023-03-12T09:25:06;4.03;;;3.00;;
65202;SDS011;51788;45.124;38.966;2023-03-12T09:27:37;6.70;;;3.47;;
65202;SDS011;51788;45.124;38.966;2023-03-12T09:30:05;7.50;;;3.95;;
65202;SDS011;51788;45.124;38.966;2023-03-12T09:32:32;3.45;;;3.10;;
65202;SDS011;51788;45.124;38.966;2023-03-12T09:34:58;16.85;;;7.05;;
65202;SDS011;51788;45.124;38.966;2023-03-12T09:37:24;7.53;;;2.95;;
65202;SDS011;51788;45.124;38.966;2023-03-12T09:39:51;9.20;;;3.45;;
65202;SDS011;51788;45.124;38.966;2023-03-12T09:42:21;9.18;;;3.25;;
65202;SDS011;51788;45.124;38.966;2023-03-12T09:45:04;9.13;;;3.20;;
65202;SDS011;51788;45.124;38.966;2023-03-12T09:47:32;4.68;;;3.63;;
65202;SDS011;51788;45.124;38.966;2023-03-12T09:52:48;6.00;;;4.13;;
65202;SDS011;51788;45.124;38.966;2023-03-12T09:55:20;6.68;;;4.07;;
65202;SDS011;51788;45.124;38.966;2023-03-12T09:57:48;5.57;;;3.15;;
65202;SDS011;51788;45.124;38.966;2023-03-12T10:00:17;8.70;;;3.22;;
65202;SDS011;51788;45.124;38.966;2023-03-12T10:05:19;9.93;;;3.83;;
65202;SDS011;51788;45.124;38.966;2023-03-12T10:08:05;11.05;;;3.97;;
65202;SDS011;51788;45.124;38.966;2023-03-12T10:16:10;6.35;;;3.22;;
65202;SDS011;51788;45.124;38.966;2023-03-12T10:24:32;7.55;;;2.95;;
65202;SDS011;51788;45.124;38.966;2023-03-12T10:27:14;9.13;;;3.05;;
65202;SDS011;51788;45.124;38.966;2023-03-12T10:29:43;9.55;;;3.20;;
65202;SDS011;51788;45.124;38.966;2023-03-12T10:32:13;3.50;;;2.60;;
65202;SDS011;51788;45.124;38.966;2023-03-12T10:37:22;6.53;;;3.22;;
65202;SDS011;51788;45.124;38.966;2023-03-12T10:40:17;7.22;;;3.00;;
65202;SDS011;51788;45.124;38.966;2023-03-12T10:42:45;19.73;;;3.58;;
65202;SDS011;51788;45.124;38.966;2023-03-12T10:45:20;5.20;;;3.30;;
65202;SDS011;51788;45.124;38.966;2023-03-12T10:47:56;8.23;;;3.00;;
65202;SDS011;51788;45.124;38.966;2023-03-12T10:50:27;7.72;;;2.75;;
65202;SDS011;51788;45.124;38.966;2023-03-12T10:56:23;8.77;;;3.35;;
65202;SDS011;51788;45.124;38.966;2023-03-12T10:58:47;10.40;;;2.88;;
65202;SDS011;51788;45.124;38.966;2023-03-12T11:01:19;9.57;;;3.30;;
65202;SDS011;51788;45.124;38.966;2023-03-12T11:03:47;4.40;;;2.95;;
65202;SDS011;51788;45.124;38.966;2023-03-12T11:06:23;7.32;;;3.13;;
65202;SDS011;51788;45.124;38.966;2023-03-12T11:11:43;7.07;;;3.45;;
65202;SDS011;51788;45.124;38.966;2023-03-12T11:16:51;3.72;;;3.33;;
65202;SDS011;51788;45.124;38.966;2023-03-12T11:19:28;9.02;;;3.45;;
65202;SDS011;51788;45.124;38.966;2023-03-12T11:22:05;27.23;;;4.93;;
65202;SDS011;51788;45.124;38.966;2023-03-12T11:24:33;20.73;;;4.45;;
65202;SDS011;51788;45.124;38.966;2023-03-12T11:27:04;7.38;;;4.15;;
65202;SDS011;51788;45.124;38.966;2023-03-12T11:29:44;4.38;;;3.53;;
65202;SDS011;51788;45.124;38.966;2023-03-12T11:32:30;6.90;;;2.67;;
65202;SDS011;51788;45.124;38.966;2023-03-12T11:35:02;7.75;;;3.40;;
65202;SDS011;51788;45.124;38.966;2023-03-12T11:51:10;6.07;;;4.60;;
65202;SDS011;51788;45.124;38.966;2023-03-12T12:05:04;3.63;;;3.33;;
65202;SDS011;51788;45.124;38.966;2023-03-12T12:10:29;8.40;;;3.15;;
65202;SDS011;51788;45.124;38.966;2023-03-12T12:27:17;8.60;;;3.92;;
65202;SDS011;51788;45.124;38.966;2023-03-12T12:32:19;10.27;;;3.53;;
65202;SDS011;51788;45.124;38.966;2023-03-12T12:35:14;6.40;;;3.50;;
65202;SDS011;51788;45.124;38.966;2023-03-12T12:37:54;10.52;;;3.30;;
65202;SDS011;51788;45.124;38.966;2023-03-12T12:40:32;17.58;;;3.97;;
65202;SDS011;51788;45.124;38.966;2023-03-12T12:43:04;9.13;;;3.40;;
65202;SDS011;51788;45.124;38.966;2023-03-12T12:48:03;7.97;;;3.67;;
65202;SDS011;51788;45.124;38.966;2023-03-12T12:50:36;8.52;;;3.28;;
65202;SDS011;51788;45.124;38.966;2023-03-12T12:53:05;9.60;;;3.38;;
65202;SDS011;51788;45.124;38.966;2023-03-12T12:55:46;5.38;;;3.47;;
65202;SDS011;51788;45.124;38.966;2023-03-12T12:58:39;5.72;;;3.10;;
65202;SDS011;51788;45.124;38.966;2023-03-12T13:01:16;5.85;;;3.03;;
65202;SDS011;51788;45.124;38.966;2023-03-12T13:03:42;4.35;;;3.30;;
65202;SDS011;51788;45.124;38.966;2023-03-12T13:06:10;10.88;;;3.55;;
65202;SDS011;51788;45.124;38.966;2023-03-12T13:11:05;3.30;;;3.00;;
65202;SDS011;51788;45.124;38.966;2023-03-12T13:13:37;2.60;;;2.40;;
65202;SDS011;51788;45.124;38.966;2023-03-12T13:27:23;11.52;;;3.20;;
65202;SDS011;51788;45.124;38.966;2023-03-12T13:29:53;9.82;;;3.20;;
65202;SDS011;51788;45.124;38.966;2023-03-12T13:46:20;5.93;;;3.42;;
65202;SDS011;51788;45.124;38.966;2023-03-12T13:49:01;6.72;;;3.63;;
65202;SDS011;51788;45.124;38.966;2023-03-12T13:51:30;6.68;;;4.05;;
65202;SDS011;51788;45.124;38.966;2023-03-12T13:54:00;14.43;;;5.97;;
65202;SDS011;51788;45.124;38.966;2023-03-12T13:56:29;7.95;;;3.80;;
65202;SDS011;51788;45.124;38.966;2023-03-12T13:59:06;5.95;;;4.05;;
65202;SDS011;51788;45.124;38.966;2023-03-12T14:01:40;8.45;;;3.80;;
65202;SDS011;51788;45.124;38.966;2023-03-12T14:04:17;8.43;;;4.50;;
65202;SDS011;51788;45.124;38.966;2023-03-12T14:09:48;9.52;;;5.13;;
65202;SDS011;51788;45.124;38.966;2023-03-12T14:12:40;10.82;;;3.85;;
65202;SDS011;51788;45.124;38.966;2023-03-12T14:15:27;6.50;;;4.10;;
65202;SDS011;51788;45.124;38.966;2023-03-12T14:17:56;6.72;;;4.40;;
65202;SDS011;51788;45.124;38.966;2023-03-12T14:20:25;7.25;;;4.43;;
65202;SDS011;51788;45.124;38.966;2023-03-12T14:22:59;4.20;;;3.90;;
65202;SDS011;51788;45.124;38.966;2023-03-12T14:25:36;10.75;;;5.05;;
65202;SDS011;51788;45.124;38.966;2023-03-12T14:28:10;4.38;;;3.95;;
65202;SDS011;51788;45.124;38.966;2023-03-12T14:30:47;8.30;;;3.80;;
65202;SDS011;51788;45.124;38.966;2023-03-12T14:33:19;5.80;;;4.15;;
65202;SDS011;51788;45.124;38.966;2023-03-12T14:35:48;11.63;;;4.57;;
65202;SDS011;51788;45.124;38.966;2023-03-12T14:38:24;7.22;;;4.40;;
65202;SDS011;51788;45.124;38.966;2023-03-12T14:43:33;5.15;;;4.53;;
65202;SDS011;51788;45.124;38.966;2023-03-12T14:46:04;8.80;;;3.75;;
65202;SDS011;51788;45.124;38.966;2023-03-12T14:48:38;5.68;;;4.20;;
65202;SDS011;51788;45.124;38.966;2023-03-12T14:51:04;7.85;;;4.70;;
65202;SDS011;51788;45.124;38.966;2023-03-12T14:53:35;5.72;;;4.53;;
65202;SDS011;51788;45.124;38.966;2023-03-12T14:58:43;8.00;;;4.28;;
65202;SDS011;51788;45.124;38.966;2023-03-12T15:01:16;6.20;;;4.88;;
65202;SDS011;51788;45.124;38.966;2023-03-12T15:03:48;10.05;;;4.40;;
65202;SDS011;51788;45.124;38.966;2023-03-12T15:09:19;12.27;;;5.20;;
65202;SDS011;51788;45.124;38.966;2023-03-12T15:12:23;12.18;;;5.70;;
65202;SDS011;51788;45.124;38.966;2023-03-12T15:14:46;4.88;;;4.40;;
65202;SDS011;51788;45.124;38.966;2023-03-12T15:17:16;5.63;;;5.03;;
65202;SDS011;51788;45.124;38.966;2023-03-12T15:19:44;6.90;;;4.80;;
65202;SDS011;51788;45.124;38.966;2023-03-12T15:22:15;6.30;;;4.30;;
65202;SDS011;51788;45.124;38.966;2023-03-12T15:24:43;13.02;;;5.28;;
65202;SDS011;51788;45.124;38.966;2023-03-12T15:29:53;5.57;;;4.45;;
65202;SDS011;51788;45.124;38.966;2023-03-12T15:32:20;8.50;;;4.22;;
65202;SDS011;51788;45.124;38.966;2023-03-12T15:34:51;7.78;;;5.10;;
65202;SDS011;51788;45.124;38.966;2023-03-12T15:37:20;8.60;;;4.32;;
65202;SDS011;51788;45.124;38.966;2023-03-12T15:39:59;4.28;;;3.92;;
65202;SDS011;51788;45.124;38.966;2023-03-12T15:42:33;8.02;;;4.65;;
65202;SDS011;51788;45.124;38.966;2023-03-12T15:45:03;7.32;;;3.90;;
65202;SDS011;51788;45.124;38.966;2023-03-12T15:47:32;6.65;;;4.78;;
65202;SDS011;51788;45.124;38.966;2023-03-12T15:50:07;5.57;;;5.05;;
65202;SDS011;51788;45.124;38.966;2023-03-12T15:53:01;7.10;;;3.83;;
65202;SDS011;51788;45.124;38.966;2023-03-12T15:55:36;5.90;;;4.53;;
65202;SDS011;51788;45.124;38.966;2023-03-12T15:58:21;4.00;;;3.70;;
65202;SDS011;51788;45.124;38.966;2023-03-12T16:01:12;5.80;;;4.28;;
65202;SDS011;51788;45.124;38.966;2023-03-12T16:03:39;9.55;;;5.07;;
65202;SDS011;51788;45.124;38.966;2023-03-12T16:06:17;11.27;;;4.93;;
65202;SDS011;51788;45.124;38.966;2023-03-12T16:08:45;5.85;;;5.13;;
65202;SDS011;51788;45.124;38.966;2023-03-12T16:11:15;5.50;;;5.00;;
65202;SDS011;51788;45.124;38.966;2023-03-12T16:13:44;5.90;;;4.85;;
65202;SDS011;51788;45.124;38.966;2023-03-12T16:16:12;10.52;;;4.93;;
65202;SDS011;51788;45.124;38.966;2023-03-12T16:18:39;3.95;;;3.72;;
65202;SDS011;51788;45.124;38.966;2023-03-12T16:21:06;3.50;;;3.30;;
65202;SDS011;51788;45.124;38.966;2023-03-12T16:23:33;4.03;;;3.72;;
65202;SDS011;51788;45.124;38.966;2023-03-12T16:25:59;6.43;;;5.80;;
65202;SDS011;51788;45.124;38.966;2023-03-12T16:28:25;7.85;;;4.88;;
65202;SDS011;51788;45.124;38.966;2023-03-12T16:30:52;4.40;;;4.07;;
65202;SDS011;51788;45.124;38.966;2023-03-12T16:33:19;5.93;;;5.30;;
65202;SDS011;51788;45.124;38.966;2023-03-12T16:35:47;5.82;;;5.28;;
65202;SDS011;51788;45.124;38.966;2023-03-12T16:38:13;4.45;;;4.15;;
65202;SDS011;51788;45.124;38.966;2023-03-12T16:40:41;5.22;;;4.72;;
65202;SDS011;51788;45.124;38.966;2023-03-12T16:43:27;5.45;;;4.95;;
65202;SDS011;51788;45.124;38.966;2023-03-12T16:45:54;6.93;;;5.55;;